Time;durP1;ratioP1;P1;durP2;ratioP2;P2;SDS_P1;SDS_P2;PMS_P1;PMS_P2;Temp;Humidity;BMP_temperature;BMP_pressure;BME280_temperature;BME280_humidity;BME280_pressure;Samples;Min_cycle;Max_cycle;Signal;HPM_P1;HPM_P2
2023/04/20 00:02:01;;;;;;;;;;;;;;;7.00;41.46;102306.78;4994314;28;19918;-53
2023/04/20 00:04:27;;;;;;;;;;;;;;;6.99;41.34;102305.91;4992568;28;19977;-52
2023/04/20 00:06:52;;;;;;;;;;;;;;;7.04;41.35;102297.63;4993174;28;20055;-49
2023/04/20 00:09:18;;;;;;;;;;;;;;;6.99;41.36;102290.56;4991627;28;19945;-54
2023/04/20 00:11:44;;;;;;;;;;;;;;;6.97;41.44;102289.56;4990116;28;20351;-54
2023/04/20 00:14:09;;;;;;;;;;;;;;;6.94;41.64;102294.47;4993048;28;19917;-53
2023/04/20 00:16:34;;;;;;;;;;;;;;;6.94;41.44;102284.25;4991202;28;20291;-54
2023/04/20 00:19:00;;;;;;;;;;;;;;;6.93;41.46;102281.59;4991371;28;19922;-53
2023/04/20 00:21:25;;;;;;;;;;;;;;;6.90;41.64;102282.28;4995004;28;19930;-53
2023/04/20 00:23:50;;;;;;;;;;;;;;;6.94;41.37;102270.59;4979387;28;20283;-54
2023/04/20 00:26:16;;;;;;;;;;;;;;;6.91;41.40;102260.13;4982851;28;19930;-56
2023/04/20 00:28:41;;;;;;;;;;;;;;;6.87;41.71;102264.19;4984301;28;19925;-54
2023/04/20 00:31:07;;;;;;;;;;;;;;;6.84;41.84;102265.66;4988921;28;19933;-54
2023/04/20 00:33:32;;;;;;;;;;;;;;;6.78;42.01;102263.56;4996217;28;19921;-54
2023/04/20 00:35:57;;;;;;;;;;;;;;;6.71;42.28;102256.28;4988551;28;19930;-52
2023/04/20 00:38:22;;;;;;;;;;;;;;;6.72;42.15;102253.81;4996154;28;19949;-52
2023/04/20 00:40:51;;;;;;;;;;;;;;;6.64;42.65;102251.56;4996017;28;19922;-54
2023/04/20 00:43:18;;;;;;;;;;;;;;;6.59;42.65;102258.03;4996128;28;20273;-53
2023/04/20 00:45:43;;;;;;;;;;;;;;;6.50;43.14;102248.09;4995561;28;19924;-53
2023/04/20 00:48:08;;;;;;;;;;;;;;;6.47;43.46;102249.56;4995343;28;20004;-53
2023/04/20 00:50:34;;;;;;;;;;;;;;;6.42;43.63;102241.56;4995834;28;19926;-53
2023/04/20 00:53:00;;;;;;;;;;;;;;;6.37;43.68;102240.38;4993654;28;19944;-54
2023/04/20 00:55:26;;;;;;;;;;;;;;;6.32;43.42;102234.09;4999405;28;20380;-55
2023/04/20 00:57:51;;;;;;;;;;;;;;;6.29;43.58;102233.88;4996028;28;19934;-53
2023/04/20 01:00:17;;;;;;;;;;;;;;;6.26;43.78;102228.59;5000259;28;19930;-53
2023/04/20 01:02:42;;;;;;;;;;;;;;;6.20;44.16;102223.94;5000545;28;19921;-53
2023/04/20 01:05:08;;;;;;;;;;;;;;;6.13;44.39;102212.44;4993685;28;20383;-54
2023/04/20 01:07:33;;;;;;;;;;;;;;;6.07;44.80;102206.91;4995699;28;19991;-53
2023/04/20 01:09:58;;;;;;;;;;;;;;;6.08;44.33;102208.69;4994520;28;19977;-52
2023/04/20 01:12:24;;;;;;;;;;;;;;;6.04;44.37;102198.16;4997918;28;19926;-53
2023/04/20 01:14:49;;;;;;;;;;;;;;;6.03;44.65;102199.81;4999549;28;20338;-54
2023/04/20 01:17:16;;;;;;;;;;;;;;;5.98;44.92;102190.06;4999968;28;19918;-52
2023/04/20 01:19:43;;;;;;;;;;;;;;;5.92;45.36;102190.53;5000121;28;19982;-53
2023/04/20 01:22:12;;;;;;;;;;;;;;;5.88;45.53;102179.22;4995128;28;19929;-53
2023/04/20 01:24:38;;;;;;;;;;;;;;;5.81;45.95;102181.22;4990785;28;19925;-52
2023/04/20 01:27:03;;;;;;;;;;;;;;;5.79;45.79;102175.16;4997950;28;19934;-49
2023/04/20 01:29:28;;;;;;;;;;;;;;;5.72;45.88;102176.41;4997988;28;19929;-54
2023/04/20 01:31:54;;;;;;;;;;;;;;;5.69;46.84;102160.84;4987368;28;19991;-53
2023/04/20 01:34:19;;;;;;;;;;;;;;;5.65;46.90;102161.44;4993655;28;19930;-54
2023/04/20 01:36:44;;;;;;;;;;;;;;;5.62;46.99;102163.78;4987736;28;19922;-53
2023/04/20 01:39:10;;;;;;;;;;;;;;;5.59;46.82;102154.25;4986003;28;19936;-50
2023/04/20 01:41:35;;;;;;;;;;;;;;;5.58;47.41;102156.69;5000479;28;20431;-52
2023/04/20 01:44:00;;;;;;;;;;;;;;;5.55;47.65;102149.72;4999453;28;20388;-52
2023/04/20 01:46:26;;;;;;;;;;;;;;;5.52;47.54;102146.06;4995484;28;19926;-51
2023/04/20 01:48:51;;;;;;;;;;;;;;;5.50;47.60;102142.53;4997097;28;19986;-45
2023/04/20 01:51:16;;;;;;;;;;;;;;;5.46;48.56;102137.97;4997199;28;20326;-45
2023/04/20 01:53:41;;;;;;;;;;;;;;;5.42;47.83;102134.34;4995103;28;19949;-46
2023/04/20 01:56:07;;;;;;;;;;;;;;;5.39;48.70;102131.56;4995507;28;19921;-45
2023/04/20 01:58:32;;;;;;;;;;;;;;;5.34;49.50;102133.84;4997401;28;20388;-45
2023/04/20 02:00:59;;;;;;;;;;;;;;;5.32;49.40;102130.25;4990653;28;19929;-45
2023/04/20 02:03:25;;;;;;;;;;;;;;;5.27;48.58;102129.06;4998679;28;20004;-46
2023/04/20 02:05:50;;;;;;;;;;;;;;;5.24;50.04;102125.44;4992908;28;20368;-47
2023/04/20 02:08:15;;;;;;;;;;;;;;;5.19;49.87;102120.00;4995840;28;19929;-47
2023/04/20 02:10:40;;;;;;;;;;;;;;;5.17;50.05;102124.13;4995625;28;20009;-48
2023/04/20 02:13:06;;;;;;;;;;;;;;;5.12;49.59;102112.72;5000665;28;19923;-46
2023/04/20 02:15:31;;;;;;;;;;;;;;;5.10;50.37;102114.28;4999253;28;20060;-46
2023/04/20 02:17:56;;;;;;;;;;;;;;;5.06;50.87;102123.34;4998873;28;20946;-47
2023/04/20 02:20:23;;;;;;;;;;;;;;;5.02;50.94;102108.63;4996321;28;19922;-45
2023/04/20 02:22:48;;;;;;;;;;;;;;;5.00;50.73;102111.84;4992223;28;19924;-45
2023/04/20 02:25:13;;;;;;;;;;;;;;;4.98;49.09;102113.41;4995261;28;19926;-44
2023/04/20 02:27:39;;;;;;;;;;;;;;;5.00;50.20;102106.75;4998203;28;19925;-53
2023/04/20 02:30:05;;;;;;;;;;;;;;;4.98;51.45;102109.19;5002499;28;19936;-54
2023/04/20 02:32:30;;;;;;;;;;;;;;;4.95;51.20;102108.09;4992810;28;19922;-55
2023/04/20 02:34:56;;;;;;;;;;;;;;;4.94;50.80;102106.31;5000003;28;19922;-53
2023/04/20 02:37:21;;;;;;;;;;;;;;;4.91;51.14;102108.63;4993779;28;19953;-51
2023/04/20 02:39:46;;;;;;;;;;;;;;;4.89;51.57;102108.53;4998324;28;19968;-53
2023/04/20 02:42:11;;;;;;;;;;;;;;;4.89;51.22;102093.25;4992026;28;19983;-52
2023/04/20 02:44:37;;;;;;;;;;;;;;;4.86;51.39;102098.16;4988736;28;20280;-53
2023/04/20 02:47:02;;;;;;;;;;;;;;;4.87;52.24;102091.38;4988290;28;19926;-53
2023/04/20 02:49:27;;;;;;;;;;;;;;;4.84;52.99;102082.72;4991369;28;19965;-54
2023/04/20 02:51:52;;;;;;;;;;;;;;;4.82;53.29;102086.84;4999880;28;20300;-53
2023/04/20 02:54:18;;;;;;;;;;;;;;;4.79;52.96;102080.63;4985805;28;19929;-53
2023/04/20 02:56:43;;;;;;;;;;;;;;;4.77;54.15;102080.53;4993227;28;19937;-54
2023/04/20 02:59:08;;;;;;;;;;;;;;;4.78;53.01;102081.41;4986132;28;19922;-54
2023/04/20 03:01:34;;;;;;;;;;;;;;;4.76;54.41;102076.22;4991261;28;19937;-51
2023/04/20 03:03:59;;;;;;;;;;;;;;;4.75;53.77;102082.09;4990954;28;19922;-50
2023/04/20 03:06:25;;;;;;;;;;;;;;;4.73;54.96;102076.00;4997079;28;19933;-54
2023/04/20 03:08:50;;;;;;;;;;;;;;;4.73;55.23;102072.53;4995320;28;20009;-55
2023/04/20 03:11:16;;;;;;;;;;;;;;;4.76;55.48;102075.31;4993591;28;20389;-53
2023/04/20 03:13:41;;;;;;;;;;;;;;;4.75;56.82;102066.78;4993344;28;20300;-54
2023/04/20 03:16:06;;;;;;;;;;;;;;;4.78;56.53;102067.00;4998592;28;19922;-53
2023/04/20 03:18:31;;;;;;;;;;;;;;;4.81;57.11;102062.13;4992914;28;19937;-56
2023/04/20 03:20:57;;;;;;;;;;;;;;;4.88;57.82;102060.00;4998743;28;19944;-53
2023/04/20 03:23:22;;;;;;;;;;;;;;;4.92;58.47;102054.38;4997199;28;19959;-52
2023/04/20 03:25:48;;;;;;;;;;;;;;;4.95;57.63;102055.44;4992304;28;19928;-52
2023/04/20 03:28:14;;;;;;;;;;;;;;;4.97;57.42;102053.88;4986971;28;19944;-51
2023/04/20 03:30:39;;;;;;;;;;;;;;;5.01;59.30;102060.09;4983686;28;19945;-52
2023/04/20 03:33:04;;;;;;;;;;;;;;;5.05;59.24;102054.44;4987774;28;20055;-52
2023/04/20 03:35:29;;;;;;;;;;;;;;;5.10;57.05;102050.53;4982219;28;20307;-53
2023/04/20 03:37:55;;;;;;;;;;;;;;;5.15;57.18;102045.72;4987357;28;19922;-52
2023/04/20 03:40:20;;;;;;;;;;;;;;;5.21;58.75;102034.28;4988011;28;19929;-53
2023/04/20 03:42:45;;;;;;;;;;;;;;;5.25;59.17;102036.28;4986493;28;19918;-55
2023/04/20 03:45:11;;;;;;;;;;;;;;;5.29;60.22;102025.50;4987668;28;19926;-53
2023/04/20 03:47:36;;;;;;;;;;;;;;;5.34;58.55;102030.94;4981975;28;19984;-54
2023/04/20 03:50:02;;;;;;;;;;;;;;;5.42;58.68;102037.41;4987252;28;20017;-54
2023/04/20 03:52:27;;;;;;;;;;;;;;;5.47;58.87;102040.28;4987598;28;19966;-54
2023/04/20 03:54:52;;;;;;;;;;;;;;;5.49;58.48;102021.75;4979417;28;19918;-53
2023/04/20 03:57:17;;;;;;;;;;;;;;;5.54;57.96;102017.84;4981022;28;19922;-53
2023/04/20 03:59:43;;;;;;;;;;;;;;;5.59;59.90;102020.69;4981105;28;19922;-53
2023/04/20 04:02:09;;;;;;;;;;;;;;;5.65;58.28;102021.97;4984810;28;19922;-50
2023/04/20 04:04:35;;;;;;;;;;;;;;;5.69;59.05;102011.97;4986503;28;19925;-52
2023/04/20 04:07:00;;;;;;;;;;;;;;;5.73;58.57;102006.28;4986008;28;19926;-53
2023/04/20 04:09:25;;;;;;;;;;;;;;;5.80;58.78;102016.09;4981877;28;19932;-53
2023/04/20 04:11:51;;;;;;;;;;;;;;;5.81;59.48;102008.53;4986702;28;20021;-52
2023/04/20 04:14:16;;;;;;;;;;;;;;;5.85;58.77;102013.06;4987475;28;19926;-54
2023/04/20 04:16:41;;;;;;;;;;;;;;;5.91;57.98;102013.50;4987750;28;19918;-53
2023/04/20 04:19:07;;;;;;;;;;;;;;;5.96;59.44;102006.16;4990776;28;19918;-53
2023/04/20 04:21:33;;;;;;;;;;;;;;;5.99;59.57;102008.00;4992774;28;20277;-53
2023/04/20 04:23:58;;;;;;;;;;;;;;;6.00;59.98;102000.44;4993792;28;19967;-53
2023/04/20 04:26:23;;;;;;;;;;;;;;;6.04;60.36;102001.53;4997887;28;20358;-52
2023/04/20 04:28:49;;;;;;;;;;;;;;;6.04;60.28;101988.78;4988996;28;19995;-54
2023/04/20 04:31:16;;;;;;;;;;;;;;;6.05;59.19;101986.31;4988175;28;20368;-53
2023/04/20 04:33:41;;;;;;;;;;;;;;;6.05;60.87;101977.75;4986151;28;19965;-55
2023/04/20 04:36:07;;;;;;;;;;;;;;;6.10;59.83;101982.38;4988630;28;19965;-54
2023/04/20 04:38:32;;;;;;;;;;;;;;;6.17;59.31;101983.66;4988231;28;19925;-53
2023/04/20 04:40:57;;;;;;;;;;;;;;;6.21;59.56;101970.31;4987634;28;19972;-54
2023/04/20 04:43:23;;;;;;;;;;;;;;;6.31;59.47;101964.09;4985127;28;19973;-54
2023/04/20 04:45:48;;;;;;;;;;;;;;;6.36;59.96;101965.25;4988064;28;20473;-54
2023/04/20 04:48:14;;;;;;;;;;;;;;;6.37;60.24;101970.50;4988405;28;19925;-54
2023/04/20 04:50:39;;;;;;;;;;;;;;;6.41;61.48;101963.88;4995093;28;19988;-53
2023/04/20 04:53:04;;;;;;;;;;;;;;;6.43;60.68;101964.84;4980922;28;19926;-54
2023/04/20 04:55:30;;;;;;;;;;;;;;;6.53;59.77;101959.53;4984028;28;20017;-52
2023/04/20 04:57:56;;;;;;;;;;;;;;;6.55;60.70;101960.53;4982681;28;19964;-52
2023/04/20 05:00:21;;;;;;;;;;;;;;;6.56;60.76;101962.28;4988500;28;20361;-53
2023/04/20 05:02:46;;;;;;;;;;;;;;;6.64;59.20;101962.75;4997483;28;19920;-52
2023/04/20 05:05:12;;;;;;;;;;;;;;;6.64;60.08;101958.53;4990002;28;19944;-54
2023/04/20 05:07:38;;;;;;;;;;;;;;;6.68;61.04;101964.72;4993701;28;19926;-54
2023/04/20 05:10:04;;;;;;;;;;;;;;;6.68;60.78;101959.59;4987620;28;19929;-55
2023/04/20 05:12:30;;;;;;;;;;;;;;;6.67;60.84;101958.72;4988095;28;19914;-54
2023/04/20 05:14:55;;;;;;;;;;;;;;;6.69;60.90;101956.25;4989179;28;19922;-54
2023/04/20 05:17:20;;;;;;;;;;;;;;;6.68;60.18;101955.38;4994867;28;19936;-55
2023/04/20 05:19:46;;;;;;;;;;;;;;;6.68;62.10;101950.25;4989903;28;20350;-54
2023/04/20 05:22:11;;;;;;;;;;;;;;;6.66;62.02;101953.50;4992371;28;20277;-54
2023/04/20 05:24:36;;;;;;;;;;;;;;;6.68;61.49;101957.94;4987833;28;19922;-56
2023/04/20 05:27:02;;;;;;;;;;;;;;;6.66;61.68;101956.94;4981674;28;19926;-56
2023/04/20 05:29:28;;;;;;;;;;;;;;;6.63;62.38;101943.97;4981676;28;19921;-53
2023/04/20 05:31:53;;;;;;;;;;;;;;;6.66;63.82;101949.25;4985833;28;19922;-49
2023/04/20 05:34:18;;;;;;;;;;;;;;;6.66;61.55;101948.38;4982178;28;19925;-48
2023/04/20 05:36:45;;;;;;;;;;;;;;;6.70;63.29;101947.78;4988706;28;20343;-46
2023/04/20 05:39:11;;;;;;;;;;;;;;;6.69;62.83;101939.25;4983392;28;20327;-49
2023/04/20 05:41:36;;;;;;;;;;;;;;;6.76;61.83;101944.72;4984420;28;19933;-45
2023/04/20 05:44:01;;;;;;;;;;;;;;;6.85;61.71;101948.69;4992075;28;19918;-45
2023/04/20 05:46:28;;;;;;;;;;;;;;;6.92;62.77;101944.88;4983373;28;20281;-46
2023/04/20 05:48:53;;;;;;;;;;;;;;;6.95;62.41;101933.13;4988915;28;19926;-45
2023/04/20 05:51:19;;;;;;;;;;;;;;;7.03;61.88;101937.81;5010553;28;19918;-46
2023/04/20 05:53:44;;;;;;;;;;;;;;;7.06;62.34;101928.66;4984632;28;19983;-45
2023/04/20 05:56:10;;;;;;;;;;;;;;;7.09;62.11;101941.63;4985654;28;19924;-44
2023/04/20 05:58:36;;;;;;;;;;;;;;;7.14;62.44;101929.97;4984181;28;20385;-46
2023/04/20 06:01:03;;;;;;;;;;;;;;;7.17;62.36;101937.84;4989000;28;19918;-44
2023/04/20 06:03:28;;;;;;;;;;;;;;;7.24;61.66;101929.75;4980773;28;19926;-44
2023/04/20 06:05:53;;;;;;;;;;;;;;;7.19;61.92;101941.38;4982592;28;19914;-47
2023/04/20 06:08:18;;;;;;;;;;;;;;;7.29;61.56;101937.69;4978757;28;19924;-44
2023/04/20 06:10:44;;;;;;;;;;;;;;;7.35;61.56;101938.06;4978593;28;20398;-45
2023/04/20 06:13:09;;;;;;;;;;;;;;;7.33;62.28;101931.94;4981943;28;20388;-44
2023/04/20 06:15:35;;;;;;;;;;;;;;;7.38;61.69;101927.09;4987999;28;20009;-44
2023/04/20 06:18:00;;;;;;;;;;;;;;;7.44;61.57;101928.31;4988307;28;20380;-45
2023/04/20 06:20:25;;;;;;;;;;;;;;;7.51;62.01;101924.44;4984724;28;19917;-45
2023/04/20 06:22:51;;;;;;;;;;;;;;;7.57;61.92;101929.03;4987827;28;19921;-44
2023/04/20 06:25:16;;;;;;;;;;;;;;;7.69;61.12;101932.28;4977285;28;19930;-48
2023/04/20 06:27:42;;;;;;;;;;;;;;;7.75;60.99;101927.50;4986443;28;20014;-47
2023/04/20 06:30:08;;;;;;;;;;;;;;;7.73;61.71;101930.00;4983199;28;19926;-45
2023/04/20 06:32:33;;;;;;;;;;;;;;;7.74;61.61;101923.19;4984379;28;20021;-55
2023/04/20 06:34:59;;;;;;;;;;;;;;;7.78;61.63;101920.91;4982384;28;20005;-55
2023/04/20 06:37:24;;;;;;;;;;;;;;;7.84;61.25;101919.47;4980592;28;20025;-57
2023/04/20 06:39:53;;;;;;;;;;;;;;;7.94;61.27;101922.63;4986928;28;19957;-56
2023/04/20 06:42:19;;;;;;;;;;;;;;;7.96;61.28;101913.34;4983544;28;19953;-56
2023/04/20 06:44:44;;;;;;;;;;;;;;;8.03;61.67;101918.00;4982866;28;20018;-54
2023/04/20 06:47:09;;;;;;;;;;;;;;;8.19;60.37;101921.41;4983024;28;19936;-55
2023/04/20 06:49:36;;;;;;;;;;;;;;;8.16;60.22;101911.00;4981310;28;19937;-54
2023/04/20 06:52:01;;;;;;;;;;;;;;;8.12;60.27;101914.19;4985899;28;19981;-55
2023/04/20 06:54:27;;;;;;;;;;;;;;;8.33;59.77;101905.13;4980663;28;20009;-55
2023/04/20 06:56:52;;;;;;;;;;;;;;;8.20;60.21;101910.38;4984125;28;19967;-55
2023/04/20 06:59:18;;;;;;;;;;;;;;;8.19;60.25;101916.28;4981953;28;19965;-56
2023/04/20 07:01:43;;;;;;;;;;;;;;;8.22;59.92;101894.28;4985919;28;19922;-56
2023/04/20 07:04:08;;;;;;;;;;;;;;;8.09;60.29;101907.22;4984255;28;19925;-55
2023/04/20 07:06:34;;;;;;;;;;;;;;;8.20;60.17;101906.13;4982410;28;19965;-56
2023/04/20 07:08:59;;;;;;;;;;;;;;;8.11;60.55;101912.44;4984595;28;19952;-53
2023/04/20 07:11:24;;;;;;;;;;;;;;;8.10;60.59;101908.09;4984081;28;20020;-47
2023/04/20 07:13:49;;;;;;;;;;;;;;;8.10;60.81;101906.41;4983343;28;19926;-48
2023/04/20 07:16:15;;;;;;;;;;;;;;;8.18;60.42;101897.47;4978083;28;20118;-45
2023/04/20 07:18:40;;;;;;;;;;;;;;;8.02;60.98;101908.56;4985734;28;19922;-44
2023/04/20 07:21:06;;;;;;;;;;;;;;;8.01;61.02;101909.38;4981374;28;19967;-45
2023/04/20 07:23:31;;;;;;;;;;;;;;;8.00;60.87;101912.72;4982007;28;19930;-44
2023/04/20 07:25:56;;;;;;;;;;;;;;;7.93;61.65;101912.28;4980698;28;19928;-46
2023/04/20 07:28:21;;;;;;;;;;;;;;;7.86;62.22;101912.75;4977078;28;19922;-44
2023/04/20 07:30:47;;;;;;;;;;;;;;;7.92;61.56;101923.34;4982796;28;19926;-44
2023/04/20 07:33:12;;;;;;;;;;;;;;;7.86;62.01;101918.75;4977665;28;20427;-45
2023/04/20 07:35:37;;;;;;;;;;;;;;;7.80;62.43;101919.28;4973629;28;19991;-46
2023/04/20 07:38:02;;;;;;;;;;;;;;;7.77;61.99;101910.56;4979779;28;19929;-44
2023/04/20 07:40:28;;;;;;;;;;;;;;;7.74;62.89;101918.06;4986351;28;20012;-44
2023/04/20 07:42:53;;;;;;;;;;;;;;;7.91;62.31;101916.47;4983017;28;20296;-54
2023/04/20 07:45:19;;;;;;;;;;;;;;;7.88;62.26;101906.03;4986831;28;19920;-55
2023/04/20 07:47:46;;;;;;;;;;;;;;;7.86;62.82;101903.38;4985052;28;19933;-56
2023/04/20 07:50:11;;;;;;;;;;;;;;;8.07;62.27;101904.59;4985914;28;19922;-55
2023/04/20 07:52:36;;;;;;;;;;;;;;;8.13;61.52;101903.13;4983613;28;20418;-55
2023/04/20 07:55:02;;;;;;;;;;;;;;;8.17;61.41;101900.81;4984111;28;19922;-55
2023/04/20 07:57:27;;;;;;;;;;;;;;;8.25;61.35;101909.84;4987035;28;19926;-54
2023/04/20 07:59:53;;;;;;;;;;;;;;;8.28;61.41;101901.41;4978566;28;20006;-56
2023/04/20 08:02:18;;;;;;;;;;;;;;;8.28;61.70;101902.28;4981460;28;19925;-54
2023/04/20 08:04:43;;;;;;;;;;;;;;;8.32;61.66;101900.78;4978916;28;20427;-57
2023/04/20 08:07:12;;;;;;;;;;;;;;;8.44;61.66;101895.47;4979668;28;19936;-55
2023/04/20 08:09:38;;;;;;;;;;;;;;;8.48;61.30;101897.38;4981156;28;19925;-56
2023/04/20 08:12:03;;;;;;;;;;;;;;;8.39;61.83;101899.47;4980764;28;20305;-55
2023/04/20 08:14:29;;;;;;;;;;;;;;;8.32;62.09;101896.53;4981873;28;19939;-55
2023/04/20 08:16:54;;;;;;;;;;;;;;;8.35;62.07;101900.94;4982595;28;19918;-55
2023/04/20 08:19:19;;;;;;;;;;;;;;;8.30;62.48;101887.00;4977409;28;19917;-56
2023/04/20 08:21:45;;;;;;;;;;;;;;;8.34;61.86;101909.44;4977589;28;19921;-56
2023/04/20 08:24:11;;;;;;;;;;;;;;;8.38;61.83;101900.28;4979780;28;19922;-53
2023/04/20 08:26:37;;;;;;;;;;;;;;;8.32;62.00;101901.66;4978865;28;19938;-55
2023/04/20 08:29:03;;;;;;;;;;;;;;;8.27;62.07;101884.28;4980968;28;20348;-54
2023/04/20 08:31:28;;;;;;;;;;;;;;;8.24;62.40;101886.66;4980579;28;20392;-57
2023/04/20 08:33:53;;;;;;;;;;;;;;;8.44;62.18;101886.09;4984896;28;19952;-54
2023/04/20 08:36:19;;;;;;;;;;;;;;;8.55;61.75;101868.69;4981698;28;19928;-55
2023/04/20 08:38:45;;;;;;;;;;;;;;;8.82;61.65;101871.81;4985065;28;19964;-56
2023/04/20 08:41:13;;;;;;;;;;;;;;;9.20;60.71;101860.91;4985412;28;19914;-56
2023/04/20 08:43:39;;;;;;;;;;;;;;;9.20;60.72;101862.59;4982725;28;19925;-55
2023/04/20 08:46:04;;;;;;;;;;;;;;;9.08;60.64;101884.28;4979660;28;19918;-53
2023/04/20 08:48:40;;;;;;;;;;;;;;;8.82;61.41;101882.06;4977555;28;19926;-56
2023/04/20 08:51:06;;;;;;;;;;;;;;;8.85;61.90;101884.78;4977476;28;19922;-54
2023/04/20 08:53:31;;;;;;;;;;;;;;;8.85;61.71;101874.53;4978423;28;20388;-58
2023/04/20 08:55:57;;;;;;;;;;;;;;;8.80;62.14;101873.44;4976062;28;19914;-54
2023/04/20 08:58:31;;;;;;;;;;;;;;;8.78;61.85;101865.63;4981253;28;19929;-56
2023/04/20 09:00:56;;;;;;;;;;;;;;;8.95;61.04;101869.06;4979334;28;20299;-51
2023/04/20 09:03:35;;;;;;;;;;;;;;;8.98;61.30;101861.53;4980373;28;20017;-57
2023/04/20 09:06:00;;;;;;;;;;;;;;;9.16;61.18;101853.88;4984270;28;19917;-56
2023/04/20 09:08:33;;;;;;;;;;;;;;;9.20;61.24;101857.47;4987951;28;19926;-55
2023/04/20 09:10:58;;;;;;;;;;;;;;;9.23;61.76;101855.94;4982136;28;20376;-55
2023/04/20 09:13:24;;;;;;;;;;;;;;;9.55;61.00;101852.34;4987018;28;20027;-55
2023/04/20 09:15:49;;;;;;;;;;;;;;;9.80;59.09;101866.34;4981016;28;19918;-55
2023/04/20 09:18:16;;;;;;;;;;;;;;;9.82;58.50;101851.88;4981489;28;20277;-56
2023/04/20 09:20:41;;;;;;;;;;;;;;;9.84;59.11;101858.00;4978305;28;20384;-55
2023/04/20 09:23:13;;;;;;;;;;;;;;;9.91;58.65;101854.91;4980261;28;19913;-55
2023/04/20 09:25:39;;;;;;;;;;;;;;;9.89;58.79;101851.41;4978966;28;19918;-57
2023/04/20 09:28:05;;;;;;;;;;;;;;;9.70;58.87;101847.06;4983175;28;19917;-55
2023/04/20 09:30:37;;;;;;;;;;;;;;;9.65;59.96;101852.00;4985199;28;19918;-55
2023/04/20 09:33:03;;;;;;;;;;;;;;;9.75;59.58;101844.72;4981277;28;19922;-55
2023/04/20 09:35:28;;;;;;;;;;;;;;;9.58;59.76;101849.91;4986025;28;20400;-54
2023/04/20 09:37:53;;;;;;;;;;;;;;;9.55;59.94;101846.34;4987685;28;19964;-56
2023/04/20 09:40:20;;;;;;;;;;;;;;;9.43;60.67;101856.03;4988629;28;19917;-56
2023/04/20 09:42:47;;;;;;;;;;;;;;;9.37;60.62;101864.31;4983882;28;20039;-58
2023/04/20 09:45:13;;;;;;;;;;;;;;;9.04;62.40;101851.59;4985216;28;19914;-54
2023/04/20 09:47:41;;;;;;;;;;;;;;;9.00;62.59;101864.19;4984491;28;20422;-55
2023/04/20 09:50:09;;;;;;;;;;;;;;;9.03;62.21;101839.53;4985064;28;19953;-56
2023/04/20 09:52:35;;;;;;;;;;;;;;;8.95;62.75;101853.69;4981650;28;20013;-56
2023/04/20 09:55:01;;;;;;;;;;;;;;;8.79;63.45;101841.75;4981752;28;19956;-56
2023/04/20 09:57:27;;;;;;;;;;;;;;;8.81;63.68;101834.16;4984641;28;19961;-55
2023/04/20 09:59:53;;;;;;;;;;;;;;;8.76;64.13;101838.16;4986050;28;20334;-54
2023/04/20 10:02:18;;;;;;;;;;;;;;;8.73;64.47;101840.56;4983995;28;19914;-54
2023/04/20 10:04:53;;;;;;;;;;;;;;;8.73;64.29;101838.00;4984864;28;20013;-54
2023/04/20 10:07:25;;;;;;;;;;;;;;;8.63;64.91;101834.09;4984853;28;20288;-53
2023/04/20 10:10:11;;;;;;;;;;;;;;;8.68;64.63;101836.91;4985932;28;19914;-53
2023/04/20 10:13:05;;;;;;;;;;;;;;;8.60;64.50;101837.38;4983661;28;19962;-54
2023/04/20 10:15:38;;;;;;;;;;;;;;;8.47;65.53;101831.53;4992085;28;19920;-56
2023/04/20 10:18:17;;;;;;;;;;;;;;;8.39;65.35;101825.16;4981600;28;19918;-55
2023/04/20 10:20:42;;;;;;;;;;;;;;;8.55;64.96;101822.56;4984060;28;20339;-55
2023/04/20 10:23:13;;;;;;;;;;;;;;;8.58;65.13;101828.72;4984503;28;19945;-54
2023/04/20 10:25:39;;;;;;;;;;;;;;;8.52;65.37;101825.84;4979691;28;19953;-55
2023/04/20 10:28:08;;;;;;;;;;;;;;;8.50;65.24;101834.28;4983751;28;19964;-54
2023/04/20 10:30:34;;;;;;;;;;;;;;;8.34;65.76;101832.53;4980309;28;19917;-55
2023/04/20 10:33:03;;;;;;;;;;;;;;;8.32;65.94;101829.91;4982669;28;20363;-54
2023/04/20 10:35:28;;;;;;;;;;;;;;;8.46;65.88;101822.97;4980635;28;19965;-54
2023/04/20 10:37:54;;;;;;;;;;;;;;;8.63;65.39;101826.41;4982133;28;19976;-56
2023/04/20 10:40:26;;;;;;;;;;;;;;;8.86;64.50;101807.06;4986109;28;19922;-53
2023/04/20 10:42:51;;;;;;;;;;;;;;;8.94;64.26;101822.81;4984042;28;19914;-52
2023/04/20 10:45:17;;;;;;;;;;;;;;;9.07;63.77;101810.69;4982089;28;19924;-52
2023/04/20 10:47:43;;;;;;;;;;;;;;;9.16;63.60;101802.56;4980388;28;20030;-55
2023/04/20 10:50:10;;;;;;;;;;;;;;;9.32;62.17;101804.16;4987009;28;19925;-56
2023/04/20 10:52:38;;;;;;;;;;;;;;;9.25;62.61;101796.97;4985795;28;19918;-53
2023/04/20 10:55:04;;;;;;;;;;;;;;;9.20;62.64;101795.88;4981292;28;20337;-44
2023/04/20 10:57:29;;;;;;;;;;;;;;;9.09;62.92;101797.91;4984224;28;19941;-46
2023/04/20 10:59:54;;;;;;;;;;;;;;;9.15;62.43;101793.06;4982361;28;20303;-45
2023/04/20 11:02:20;;;;;;;;;;;;;;;9.20;61.97;101803.56;4983543;28;19918;-45
2023/04/20 11:04:45;;;;;;;;;;;;;;;9.37;61.87;101795.88;4986666;28;20191;-44
2023/04/20 11:07:13;;;;;;;;;;;;;;;9.64;61.13;101795.41;4985049;28;19926;-45
2023/04/20 11:09:38;;;;;;;;;;;;;;;9.72;60.34;101782.94;4986830;28;19918;-44
2023/04/20 11:12:04;;;;;;;;;;;;;;;9.81;59.38;101788.50;4986446;28;19921;-43
2023/04/20 11:14:34;;;;;;;;;;;;;;;9.89;58.99;101787.16;4984272;28;19913;-46
2023/04/20 11:17:00;;;;;;;;;;;;;;;9.89;59.08;101787.16;4984239;28;19926;-43
2023/04/20 11:19:26;;;;;;;;;;;;;;;9.88;59.01;101780.25;4976264;28;20021;-44
2023/04/20 11:21:52;;;;;;;;;;;;;;;10.00;58.74;101785.94;4979305;28;19993;-46
2023/04/20 11:24:18;;;;;;;;;;;;;;;9.93;59.40;101763.34;4976057;28;20009;-45
2023/04/20 11:26:44;;;;;;;;;;;;;;;9.98;58.27;101761.88;4982749;28;19922;-44
2023/04/20 11:29:09;;;;;;;;;;;;;;;9.82;59.09;101751.72;4979103;28;20024;-43
2023/04/20 11:31:35;;;;;;;;;;;;;;;9.68;59.98;101762.25;4979747;28;19918;-43
2023/04/20 11:34:01;;;;;;;;;;;;;;;9.71;59.81;101763.19;4983218;28;19918;-47
2023/04/20 11:36:28;;;;;;;;;;;;;;;9.63;60.24;101763.72;4982071;28;19952;-44
2023/04/20 11:38:54;;;;;;;;;;;;;;;9.73;58.48;101762.47;4978036;28;19921;-43
2023/04/20 11:41:20;;;;;;;;;;;;;;;9.68;58.24;101751.97;4985229;28;20368;-57
2023/04/20 11:43:46;;;;;;;;;;;;;;;9.60;58.71;101758.44;4982741;28;20012;-57
2023/04/20 11:46:12;;;;;;;;;;;;;;;9.51;59.46;101752.88;4980394;28;20526;-55
2023/04/20 11:48:37;;;;;;;;;;;;;;;9.50;60.18;101750.25;4982472;28;19987;-54
2023/04/20 11:51:04;;;;;;;;;;;;;;;9.45;61.16;101744.00;4986197;28;20409;-56
2023/04/20 11:53:29;;;;;;;;;;;;;;;9.53;60.35;101748.72;4979272;28;20330;-57
2023/04/20 11:55:54;;;;;;;;;;;;;;;9.49;60.43;101748.50;4981266;28;19918;-55
2023/04/20 11:58:20;;;;;;;;;;;;;;;9.46;60.69;101744.06;4979765;28;19929;-54
2023/04/20 12:00:45;;;;;;;;;;;;;;;9.49;61.20;101739.09;4981248;28;19922;-55
2023/04/20 12:03:10;;;;;;;;;;;;;;;9.46;62.88;101785.16;4983090;28;20376;-55
2023/04/20 12:05:35;;;;;;;;;;;;;;;9.19;67.03;101759.06;4983619;28;19964;-57
2023/04/20 12:08:01;;;;;;;;;;;;;;;9.02;67.65;101760.81;4985179;28;19932;-49
2023/04/20 12:10:26;;;;;;;;;;;;;;;8.73;67.52;101756.81;5014066;28;19929;-52
2023/04/20 12:12:52;;;;;;;;;;;;;;;8.56;69.09;101761.13;4990149;28;19942;-52
2023/04/20 12:15:17;;;;;;;;;;;;;;;8.46;69.64;101743.50;4985572;28;19922;-50
2023/04/20 12:17:43;;;;;;;;;;;;;;;8.49;68.69;101751.38;4983501;28;20218;-53
2023/04/20 12:20:10;;;;;;;;;;;;;;;8.54;69.41;101749.91;4986694;28;19940;-54
2023/04/20 12:22:36;;;;;;;;;;;;;;;8.58;69.03;101753.50;4985875;28;19925;-52
2023/04/20 12:25:01;;;;;;;;;;;;;;;8.60;68.82;101757.91;4984172;28;19929;-50
2023/04/20 12:27:26;;;;;;;;;;;;;;;8.69;68.30;101762.63;5005199;28;20348;-50
2023/04/20 12:29:52;;;;;;;;;;;;;;;8.74;68.91;101761.16;4990969;28;19982;-54
2023/04/20 12:32:17;;;;;;;;;;;;;;;8.82;70.27;101771.78;4988221;28;19926;-52
2023/04/20 12:34:42;;;;;;;;;;;;;;;8.55;76.66;101748.22;4986846;28;19925;-50
2023/04/20 12:37:08;;;;;;;;;;;;;;;8.46;74.91;101735.81;4989164;28;19941;-49
2023/04/20 12:39:33;;;;;;;;;;;;;;;8.53;74.13;101742.13;4986534;28;19917;-50
2023/04/20 12:41:58;;;;;;;;;;;;;;;8.59;77.23;101743.31;4997762;28;19975;-50